M I D A S
Marine Information and Data Acquisition System
Tripno 1036 of the Zeeleeuw from 2006-02-24 09:06:28 to 2006-02-24 12:00:59
Back to CruiseResearch ActivitiesStationsMapUnderway DataData graphs

EquipmentUnitsComments
TimeDGPSUTC
LatitudeDGPSDM.mWGS84
LongitudeDGPSDM.mWGS84
SpeedMeteo Stationm/sRelative wind speed
DirectionMeteo StationdegRelative wind direction
TemperatureMeteo Stationdeg CelciusAir temperature
PressureMeteo StationPaAtmospheric pressure
HumidityMeteo Station%Relative humidity
Missing or incorrect values are displayed as -999
Metereological data collected by the RV Zeeleeuw from 2006-02-24 07:40:43 to 2006-02-24 12:14:37
Time Latitude Longitude Speed Direction Temperature Pressure Humidity
2006-02-24 07:41 51°13.611 2°56.042 -999 336 -0.8 101810 75
2006-02-24 07:42 51°13.644 2°55.926 -999 303 -0.8 101820 75
2006-02-24 07:43 51°13.68 2°55.803 -999 302 -0.8 101820 75
2006-02-24 07:44 51°13.695 2°55.744 -999 20 -0.8 101820 75
2006-02-24 07:45 51°13.701 2°55.733 -999 76 -0.8 101810 75
2006-02-24 07:46 51°13.746 2°55.709 -999 128 -0.7 101810 75
2006-02-24 07:47 51°13.825 2°55.637 -999 62 -0.7 101820 75
2006-02-24 07:48 51°13.929 2°55.564 -999 93 -0.7 101810 75
2006-02-24 07:49 51°14.039 2°55.488 -999 91 -0.7 101820 75
2006-02-24 07:50 51°14.157 2°55.398 -999 55 -0.7 101810 75
2006-02-24 07:51 51°14.258 2°55.264 -999 70 -0.7 101810 75
2006-02-24 07:52 51°14.341 2°55.098 -999 87 -0.7 101810 76
2006-02-24 07:53 51°14.418 2°54.909 -999 132 -0.7 101810 76
2006-02-24 07:54 51°14.435 2°54.629 -999 65 -0.6 101810 77
2006-02-24 07:55 51°14.375 2°54.328 -999 281 -0.5 101810 77
2006-02-24 07:56 51°14.271 2°54.051 -999 260 -0.5 101780 77
2006-02-24 07:57 51°14.172 2°53.774 -999 240 -0.5 101790 77
2006-02-24 07:58 51°14.067 2°53.499 -999 276 -0.5 101780 76
2006-02-24 07:59 51°13.964 2°53.222 -999 280 -0.5 101780 77
2006-02-24 08:00 51°13.863 2°52.939 -999 260 -0.4 101780 77
2006-02-24 08:01 51°13.764 2°52.656 -999 246 -0.4 101780 76
2006-02-24 08:02 51°13.665 2°52.371 -999 256 -0.4 101780 77
2006-02-24 08:03 51°13.562 2°52.089 -999 261 -0.4 101780 76
2006-02-24 08:04 51°13.459 2°51.81 -999 245 -0.4 101810 76
2006-02-24 08:05 51°13.355 2°51.533 -999 258 -0.4 101810 75
2006-02-24 08:06 51°13.251 2°51.253 -999 229 -0.3 101780 76
2006-02-24 08:07 51°13.149 2°50.972 -999 252 -0.3 101780 76
2006-02-24 08:08 51°13.044 2°50.694 -999 256 -0.3 101780 75
2006-02-24 08:09 51°12.942 2°50.413 -999 256 -0.3 101780 75
2006-02-24 08:10 51°12.842 2°50.13 -999 260 -0.2 101780 75
2006-02-24 08:11 51°12.747 2°49.841 -999 245 -0.2 101810 75
2006-02-24 08:12 51°12.653 2°49.552 -999 223 -0.2 101810 74
2006-02-24 08:13 51°12.558 2°49.265 -999 272 -0.2 101810 74
2006-02-24 08:14 51°12.462 2°48.983 -999 266 -0.2 101790 74
2006-02-24 08:15 51°12.368 2°48.696 -999 247 -0.1 101790 74
2006-02-24 08:16 51°12.273 2°48.411 -999 244 -0.1 101790 74
2006-02-24 08:17 51°12.179 2°48.124 -999 259 -999 101790 74
2006-02-24 08:18 51°12.087 2°47.836 -999 259 -999 101790 74
2006-02-24 08:19 51°11.994 2°47.546 -999 250 -999 101790 74
2006-02-24 08:20 51°11.9 2°47.257 -999 245 -999 101790 73
2006-02-24 08:21 51°11.808 2°46.966 -999 243 0.1 101790 74
2006-02-24 08:22 51°11.714 2°46.678 -999 252 0.1 101790 74
2006-02-24 08:23 51°11.621 2°46.39 -999 246 0.1 101790 74
2006-02-24 08:24 51°11.529 2°46.095 -999 251 0.1 101790 73
2006-02-24 08:25 51°11.438 2°45.8 -999 241 -999 101790 73
2006-02-24 08:26 51°11.346 2°45.505 -999 232 -999 101790 73
2006-02-24 08:27 51°11.253 2°45.213 -999 265 -999 101790 74
2006-02-24 08:28 51°11.162 2°44.92 -999 259 -999 101780 74
2006-02-24 08:29 51°11.087 2°44.613 -999 228 -999 101790 74
2006-02-24 08:30 51°11.01 2°44.309 -999 257 -999 101780 74
2006-02-24 08:31 51°10.933 2°44.002 -999 244 -999 101790 74
2006-02-24 08:32 51°10.851 2°43.703 -999 255 -999 101790 74
2006-02-24 08:33 51°10.773 2°43.402 -999 218 -999 101790 74
2006-02-24 08:34 51°10.689 2°43.105 -999 221 0.1 101790 74
2006-02-24 08:35 51°10.61 2°42.8 -999 240 -999 101800 74
2006-02-24 08:36 51°10.535 2°42.498 -999 260 0.1 101790 75
2006-02-24 08:37 51°10.454 2°42.199 -999 259 -999 101790 74
2006-02-24 08:38 51°10.376 2°41.9 -999 249 0.1 101780 75
2006-02-24 08:39 51°10.298 2°41.604 -999 241 0.1 101780 75
2006-02-24 08:40 51°10.218 2°41.307 -999 249 -999 101780 74
2006-02-24 08:41 51°10.136 2°41.017 -999 227 0.1 101790 75
2006-02-24 08:42 51°10.063 2°40.717 -999 197 -999 101790 74
2006-02-24 08:43 51°9.996 2°40.409 -999 207 0.1 101810 74
2006-02-24 08:44 51°9.926 2°40.104 -999 173 0.1 101790 74
2006-02-24 08:45 51°9.857 2°39.803 -999 220 0.2 101790 75
2006-02-24 08:46 51°9.79 2°39.497 -999 200 0.3 101790 76
2006-02-24 08:47 51°9.722 2°39.189 -999 208 0.2 101800 75
2006-02-24 08:48 51°9.649 2°38.891 -999 229 0.1 101790 74
2006-02-24 08:49 51°9.576 2°38.594 -999 235 -999 101800 75
2006-02-24 08:50 51°9.507 2°38.289 -999 242 -0.1 101800 74
2006-02-24 08:51 51°9.438 2°37.985 -999 238 -0.1 101800 74
2006-02-24 08:52 51°9.371 2°37.68 -999 231 -0.1 101790 74
2006-02-24 08:53 51°9.306 2°37.371 -999 227 -999 101790 75
2006-02-24 08:54 51°9.242 2°37.064 -999 228 -999 101790 75
2006-02-24 08:55 51°9.176 2°36.761 -999 225 -999 101790 75
2006-02-24 08:56 51°9.108 2°36.46 -999 233 -999 101790 75
2006-02-24 08:57 51°9.044 2°36.154 -999 211 -999 101780 75
2006-02-24 08:58 51°8.976 2°35.853 -999 219 -999 101800 75
2006-02-24 08:59 51°8.911 2°35.552 -999 240 0.1 101790 76
2006-02-24 09:00 51°8.848 2°35.247 -999 212 0.2 101790 76
2006-02-24 09:01 51°8.783 2°34.942 -999 242 0.2 101790 76
2006-02-24 09:02 51°8.714 2°34.64 -999 236 0.2 101790 76
2006-02-24 09:03 51°8.635 2°34.345 -999 234 0.2 101790 75
2006-02-24 09:04 51°8.526 2°34.073 -999 246 0.2 101790 76
2006-02-24 09:05 51°8.421 2°33.799 -999 242 0.2 101790 75
2006-02-24 09:06 51°8.312 2°33.525 -999 249 0.2 101790 75
2006-02-24 09:07 51°8.203 2°33.253 -999 239 0.2 101790 75
2006-02-24 09:08 51°8.088 2°32.985 -999 246 0.3 101790 76
2006-02-24 09:09 51°7.974 2°32.719 -999 235 0.3 101790 75
2006-02-24 09:10 51°7.861 2°32.451 -999 250 0.2 101790 74
2006-02-24 09:11 51°7.752 2°32.181 -999 273 0.4 101790 75
2006-02-24 09:12 51°7.641 2°31.91 -999 262 0.5 101820 75
2006-02-24 09:13 51°7.529 2°31.639 -999 267 0.4 101790 75
2006-02-24 09:14 51°7.419 2°31.363 -999 309 0.7 101790 76
2006-02-24 09:15 51°7.307 2°31.086 -999 260 1 101780 77
2006-02-24 09:16 51°7.191 2°30.804 -999 319 1.1 101790 76
2006-02-24 09:17 51°7.075 2°30.53 -999 254 1.3 101790 76
2006-02-24 09:18 51°7.033 2°30.222 -999 119 1.2 101800 73
2006-02-24 09:19 51°7.185 2°30.023 -999 62 1 101780 74
2006-02-24 09:20 51°7.376 2°30.161 -999 25 0.7 101750 74
2006-02-24 09:21 51°7.542 2°30.407 -999 25 0.6 101750 74
2006-02-24 09:22 51°7.704 2°30.661 -999 26 0.5 101760 75
2006-02-24 09:23 51°7.867 2°30.913 -999 22 0.5 101750 75
2006-02-24 09:24 51°8.03 2°31.164 -999 28 0.4 101770 75
2006-02-24 09:25 51°8.193 2°31.417 -999 33 0.3 101750 75
2006-02-24 09:26 51°8.356 2°31.673 -999 30 0.4 101740 76
2006-02-24 09:27 51°8.516 2°31.934 -999 27 0.4 101770 75
2006-02-24 09:28 51°8.671 2°32.199 -999 26 0.4 101760 75
2006-02-24 09:29 51°8.825 2°32.457 -999 28 0.4 101750 76
2006-02-24 09:30 51°8.978 2°32.715 -999 27 0.4 101770 76
2006-02-24 09:31 51°9.131 2°32.972 -999 24 0.4 101760 75
2006-02-24 09:32 51°9.282 2°33.229 -999 24 0.5 101770 75
2006-02-24 09:33 51°9.434 2°33.486 -999 29 0.5 101760 76
2006-02-24 09:34 51°9.586 2°33.744 -999 21 0.5 101780 76
2006-02-24 09:35 51°9.739 2°34.002 -999 26 0.5 101770 76
2006-02-24 09:36 51°9.891 2°34.257 -999 23 0.5 101760 75
2006-02-24 09:37 51°10.043 2°34.51 -999 28 0.5 101770 75
2006-02-24 09:38 51°10.197 2°34.764 -999 26 0.6 101770 75
2006-02-24 09:39 51°10.35 2°35.02 -999 27 0.6 101770 76
2006-02-24 09:40 51°10.503 2°35.271 -999 33 0.6 101760 75
2006-02-24 09:41 51°10.654 2°35.519 -999 34 0.5 101760 74
2006-02-24 09:42 51°10.825 2°35.734 -999 34 0.5 101780 75
2006-02-24 09:43 51°10.998 2°35.95 -999 31 0.6 101770 75
2006-02-24 09:44 51°11.171 2°36.166 -999 34 0.5 101770 75
2006-02-24 09:45 51°11.343 2°36.38 -999 30 0.5 101770 75
2006-02-24 09:46 51°11.519 2°36.591 -999 32 0.5 101770 75
2006-02-24 09:47 51°11.694 2°36.801 -999 35 0.6 101780 75
2006-02-24 09:48 51°11.873 2°37.001 -999 31 0.5 101770 75
2006-02-24 09:49 51°12.051 2°37.202 -999 31 0.5 101770 75
2006-02-24 09:50 51°12.228 2°37.404 -999 36 0.6 101770 76
2006-02-24 09:51 51°12.407 2°37.601 -999 34 0.5 101760 75
2006-02-24 09:52 51°12.588 2°37.797 -999 32 0.6 101770 76
2006-02-24 09:53 51°12.769 2°37.998 -999 33 0.5 101770 75
2006-02-24 09:54 51°12.95 2°38.194 -999 33 0.5 101770 74
2006-02-24 09:55 51°13.129 2°38.393 -999 39 0.6 101760 75
2006-02-24 09:56 51°13.311 2°38.59 -999 35 0.6 101770 75
2006-02-24 09:57 51°13.488 2°38.79 -999 45 0.6 101760 75
2006-02-24 09:58 51°13.69 2°38.92 -999 53 0.6 101780 75
2006-02-24 09:59 51°13.899 2°39.033 -999 52 0.6 101770 75
2006-02-24 10:00 51°14.108 2°39.146 -999 54 0.6 101820 75
2006-02-24 10:01 51°14.319 2°39.264 -999 50 0.7 101770 75
2006-02-24 10:02 51°14.528 2°39.385 -999 51 0.7 101790 75
2006-02-24 10:03 51°14.736 2°39.503 -999 41 0.7 101770 75
2006-02-24 10:04 51°14.943 2°39.627 -999 42 0.8 101780 75
2006-02-24 10:05 51°15.152 2°39.75 -999 50 0.8 101790 75
2006-02-24 10:06 51°15.358 2°39.877 -999 53 0.8 101800 76
2006-02-24 10:07 51°15.567 2°40.003 -999 47 0.8 101790 75
2006-02-24 10:08 51°15.774 2°40.129 -999 52 0.8 101800 75
2006-02-24 10:09 51°15.981 2°40.259 -999 43 0.8 101800 76
2006-02-24 10:10 51°16.187 2°40.388 -999 46 0.8 101790 76
2006-02-24 10:11 51°16.392 2°40.516 -999 54 0.7 101790 75
2006-02-24 10:12 51°16.6 2°40.642 -999 52 0.7 101790 75
2006-02-24 10:13 51°16.804 2°40.769 -999 47 0.7 101800 76
2006-02-24 10:14 51°17.006 2°40.89 -999 50 0.7 101780 76
2006-02-24 10:15 51°17.212 2°41.017 -999 49 0.7 101800 76
2006-02-24 10:16 51°17.419 2°41.145 -999 40 0.8 101800 76
2006-02-24 10:17 51°17.568 2°41.383 -999 19 0.8 101800 76
2006-02-24 10:18 51°17.611 2°41.72 -999 359 0.9 101840 77
2006-02-24 10:19 51°17.626 2°42.056 -999 1 0.9 101830 77
2006-02-24 10:20 51°17.641 2°42.4 -999 2 1 101830 77
2006-02-24 10:21 51°17.656 2°42.751 -999 3 1 101840 77
2006-02-24 10:22 51°17.666 2°43.088 -999 359 1 101830 77
2006-02-24 10:23 51°17.675 2°43.432 -999 359 1 101830 76
2006-02-24 10:24 51°17.679 2°43.761 -999 351 1 101840 76
2006-02-24 10:25 51°17.598 2°44.05 -999 323 1 101810 76
2006-02-24 10:26 51°17.413 2°44.155 -999 296 1 101840 76
2006-02-24 10:27 51°17.212 2°44.118 -999 291 1.1 101850 77
2006-02-24 10:28 51°17.012 2°44.047 -999 284 1.1 101850 77
2006-02-24 10:29 51°16.817 2°43.97 -999 291 1.1 101850 77
2006-02-24 10:30 51°16.617 2°43.905 -999 290 1.1 101850 78
2006-02-24 10:31 51°16.42 2°43.829 -999 284 1.2 101850 78
2006-02-24 10:32 51°16.222 2°43.764 -999 292 1.1 101870 77
2006-02-24 10:33 51°16.028 2°43.682 -999 288 1.1 101870 77
2006-02-24 10:34 51°15.831 2°43.604 -999 284 1.1 101850 77
2006-02-24 10:35 51°15.64 2°43.537 -999 301 1.1 101850 77
2006-02-24 10:36 51°15.445 2°43.471 -999 283 1.1 101850 77
2006-02-24 10:37 51°15.245 2°43.405 -999 297 1.1 101850 77
2006-02-24 10:38 51°15.046 2°43.343 -999 291 1.1 101850 77
2006-02-24 10:39 51°14.847 2°43.276 -999 285 1.1 101840 77
2006-02-24 10:40 51°14.646 2°43.214 -999 292 1.1 101840 77
2006-02-24 10:41 51°14.446 2°43.143 -999 296 1.1 101850 77
2006-02-24 10:42 51°14.248 2°43.071 -999 289 1.1 101850 77
2006-02-24 10:43 51°14.046 2°42.995 -999 287 1.1 101850 77
2006-02-24 10:44 51°13.852 2°43.026 -999 319 1.2 101840 77
2006-02-24 10:45 51°13.75 2°43.287 -999 357 1.2 101820 77
2006-02-24 10:46 51°13.751 2°43.62 -999 355 1.2 101820 76
2006-02-24 10:47 51°13.748 2°43.955 -999 356 1.2 101830 75
2006-02-24 10:48 51°13.743 2°44.291 -999 358 1.2 101840 75
2006-02-24 10:49 51°13.741 2°44.631 -999 359 1.2 101840 75
2006-02-24 10:50 51°13.779 2°44.962 -999 15 1.3 101850 74
2006-02-24 10:51 51°13.863 2°45.281 -999 16 1.3 101830 75
2006-02-24 10:52 51°13.952 2°45.588 -999 21 1.3 101850 74
2006-02-24 10:53 51°14.043 2°45.906 -999 19 1.3 101840 74
2006-02-24 10:54 51°14.134 2°46.216 -999 16 1.4 101840 75
2006-02-24 10:55 51°14.227 2°46.536 -999 13 1.5 101840 76
2006-02-24 10:56 51°14.314 2°46.846 -999 15 1.5 101840 76
2006-02-24 10:57 51°14.435 2°47.114 -999 41 1.6 101840 76
2006-02-24 10:58 51°14.64 2°47.125 -999 74 1.5 101850 75
2006-02-24 10:59 51°14.842 2°47.002 -999 76 1.5 101890 75
2006-02-24 11:00 51°15.041 2°46.862 -999 76 1.5 101870 75
2006-02-24 11:01 51°15.241 2°46.721 -999 83 1.5 101880 75
2006-02-24 11:02 51°15.448 2°46.579 -999 83 1.5 101880 76
2006-02-24 11:03 51°15.644 2°46.443 -999 82 1.5 101850 76
2006-02-24 11:04 51°15.843 2°46.309 -999 82 1.5 101860 76
2006-02-24 11:05 51°16.043 2°46.172 -999 76 1.5 101870 76
2006-02-24 11:06 51°16.243 2°46.037 -999 81 1.5 101870 76
2006-02-24 11:07 51°16.444 2°45.898 -999 80 1.6 101860 77
2006-02-24 11:08 51°16.647 2°45.76 -999 89 1.6 101880 77
2006-02-24 11:09 51°16.853 2°45.618 -999 88 1.5 101870 76
2006-02-24 11:10 51°17.055 2°45.476 -999 88 1.6 101880 77
2006-02-24 11:11 51°17.259 2°45.327 -999 74 1.7 101860 77
2006-02-24 11:12 51°17.457 2°45.185 -999 82 1.6 101870 77
2006-02-24 11:13 51°17.658 2°45.046 -999 89 1.6 101860 76
2006-02-24 11:14 51°17.864 2°44.913 -999 82 1.6 101870 76
2006-02-24 11:15 51°18.065 2°44.979 -999 30 1.7 101860 77
2006-02-24 11:16 51°18.189 2°45.248 -999 20 1.7 101860 76
2006-02-24 11:17 51°18.314 2°45.524 -999 23 1.7 101880 76
2006-02-24 11:18 51°18.44 2°45.805 -999 21 1.8 101870 76
2006-02-24 11:19 51°18.561 2°46.073 -999 19 1.8 101870 76
2006-02-24 11:20 51°18.678 2°46.353 -999 21 1.8 101870 76
2006-02-24 11:21 51°18.793 2°46.636 -999 23 1.8 101870 76
2006-02-24 11:22 51°18.906 2°46.921 -999 18 1.8 101880 77
2006-02-24 11:23 51°19.01 2°47.216 -999 21 1.8 101870 76
2006-02-24 11:24 51°19.115 2°47.509 -999 18 1.8 101870 76
2006-02-24 11:25 51°19.218 2°47.802 -999 14 1.8 101870 76
2006-02-24 11:26 51°19.32 2°48.092 -999 18 1.8 101890 77
2006-02-24 11:27 51°19.398 2°48.408 -999 1 1.8 101890 76
2006-02-24 11:28 51°19.326 2°48.7 -999 344 1.8 101860 77
2006-02-24 11:29 51°19.233 2°48.996 -999 344 1.8 101870 77
2006-02-24 11:30 51°19.132 2°49.268 -999 336 1.8 101850 77
2006-02-24 11:31 51°19.011 2°49.529 -999 336 1.8 101870 77
2006-02-24 11:32 51°18.881 2°49.775 -999 332 1.8 101860 77
2006-02-24 11:33 51°18.75 2°50.022 -999 335 1.8 101870 76
2006-02-24 11:34 51°18.623 2°50.275 -999 327 1.8 101870 76
2006-02-24 11:35 51°18.493 2°50.526 -999 333 1.9 101870 76
2006-02-24 11:36 51°18.366 2°50.781 -999 335 1.9 101860 75
2006-02-24 11:37 51°18.236 2°51.036 -999 329 1.9 101860 75
2006-02-24 11:38 51°18.107 2°51.291 -999 337 1.9 101870 75
2006-02-24 11:39 51°17.978 2°51.544 -999 334 1.9 101860 75
2006-02-24 11:40 51°17.842 2°51.789 -999 325 2.1 101880 76
2006-02-24 11:41 51°17.688 2°52.011 -999 329 2.1 101850 76
2006-02-24 11:42 51°17.523 2°52.194 -999 317 2.1 101860 75
2006-02-24 11:43 51°17.346 2°52.368 -999 229 2.2 101860 75
2006-02-24 11:44 51°17.163 2°52.522 -999 313 2.3 101860 75
2006-02-24 11:45 51°16.98 2°52.676 -999 321 2.3 101870 74
2006-02-24 11:46 51°16.799 2°52.831 -999 313 2.3 101880 75
2006-02-24 11:47 51°16.613 2°52.984 -999 226 2.4 101880 74
2006-02-24 11:48 51°16.428 2°53.139 -999 314 2.4 101890 74
2006-02-24 11:49 51°16.241 2°53.29 -999 314 2.5 101870 75
2006-02-24 11:50 51°16.055 2°53.443 -999 311 2.5 101880 74
2006-02-24 11:51 51°15.869 2°53.599 -999 311 2.5 101880 74
2006-02-24 11:52 51°15.68 2°53.751 -999 228 2.6 101870 74
2006-02-24 11:53 51°15.495 2°53.907 -999 318 2.6 101870 73
2006-02-24 11:54 51°15.338 2°54.024 -999 315 2.6 101880 72
2006-02-24 11:55 51°15.178 2°54.129 -999 311 2.6 101860 71
2006-02-24 11:56 51°15.001 2°54.263 -999 317 2.6 101860 72
2006-02-24 11:57 51°14.817 2°54.409 -999 315 2.7 101860 71
2006-02-24 11:58 51°14.65 2°54.581 -999 43 2.6 101850 71
2006-02-24 11:59 51°14.496 2°54.782 -999 327 2.6 101860 71
2006-02-24 12:00 51°14.369 2°55.027 -999 358 2.5 101860 70
2006-02-24 12:01 51°14.253 2°55.266 -999 348 2.7 101900 71
2006-02-24 12:02 51°14.141 2°55.398 -999 41 2.8 101900 71
2006-02-24 12:03 51°14.036 2°55.473 -999 312 2.8 101910 70
2006-02-24 12:04 51°13.924 2°55.555 -999 41 2.9 101920 69
2006-02-24 12:05 51°13.827 2°55.633 -999 333 2.9 101920 69
2006-02-24 12:06 51°13.759 2°55.702 -999 331 3.1 101910 69
2006-02-24 12:07 51°13.711 2°55.778 -999 332 3.1 101920 68
2006-02-24 12:08 51°13.672 2°55.855 -999 329 3.1 101910 68
2006-02-24 12:09 51°13.643 2°55.937 -999 336 3.2 101910 68
2006-02-24 12:10 51°13.622 2°56.008 -999 353 3.2 101910 68
2006-02-24 12:11 51°13.607 2°56.064 -999 331 3.2 101910 69
2006-02-24 12:12 51°13.602 2°56.076 -999 320 3.3 101920 69
2006-02-24 12:13 51°13.597 2°56.087 -999 329 3.3 101920 68